Time;durP1;ratioP1;P1;durP2;ratioP2;P2;SDS_P1;SDS_P2;PMS_P1;PMS_P2;Temp;Humidity;BMP_temperature;BMP_pressure;BME280_temperature;BME280_humidity;BME280_pressure;Samples;Min_cycle;Max_cycle;Signal;HPM_P1;HPM_P2
2023/11/08 00:02:25;;;;;;;2.63;1.57;;;7.60;99.90;;;;;;4809002;29;20193;-85
2023/11/08 00:04:53;;;;;;;3.03;1.50;;;7.60;99.90;;;;;;4827824;29;20269;-83
2023/11/08 00:07:18;;;;;;;4.23;1.73;;;7.60;99.90;;;;;;4813327;29;20281;-84
2023/11/08 00:09:44;;;;;;;3.83;1.60;;;7.60;99.90;;;;;;4808972;29;20293;-83
2023/11/08 00:12:10;;;;;;;5.50;1.80;;;7.60;99.90;;;;;;4808787;29;20194;-84
2023/11/08 00:14:36;;;;;;;3.33;1.70;;;7.60;99.90;;;;;;4825119;29;20663;-84
2023/11/08 00:17:03;;;;;;;5.53;1.80;;;7.60;99.90;;;;;;4825126;29;20194;-85
2023/11/08 00:19:29;;;;;;;4.67;1.70;;;7.70;99.90;;;;;;4825070;29;20280;-83
2023/11/08 00:21:58;;;;;;;3.33;1.60;;;7.70;99.90;;;;;;4808626;29;20280;-87
2023/11/08 00:24:27;;;;;;;4.90;1.73;;;7.60;99.90;;;;;;4825034;29;20221;-84
2023/11/08 00:26:53;;;;;;;2.30;1.57;;;7.60;99.90;;;;;;4808303;29;20198;-85
2023/11/08 00:29:18;;;;;;;3.20;1.27;;;7.60;99.90;;;;;;4808780;29;20710;-85
2023/11/08 00:31:44;;;;;;;2.37;1.30;;;7.60;99.90;;;;;;4826949;29;20264;-85
2023/11/08 00:34:13;;;;;;;5.33;1.40;;;7.70;99.90;;;;;;4814340;29;20202;-86
2023/11/08 00:36:39;;;;;;;4.83;1.67;;;7.70;99.90;;;;;;4808504;29;20198;-86
2023/11/08 00:39:05;;;;;;;2.40;1.33;;;7.60;99.90;;;;;;4825186;29;20194;-86
2023/11/08 00:41:33;;;;;;;3.13;1.30;;;7.60;99.90;;;;;;4809012;29;20241;-86
2023/11/08 00:43:58;;;;;;;2.23;1.50;;;7.60;99.90;;;;;;4808146;29;20257;-84
2023/11/08 00:46:24;;;;;;;3.67;1.50;;;7.60;99.90;;;;;;4810591;29;20278;-81
2023/11/08 00:48:50;;;;;;;4.70;1.30;;;7.70;99.90;;;;;;4835780;29;20292;-85
2023/11/08 00:51:16;;;;;;;3.13;1.70;;;7.70;99.90;;;;;;4828249;29;20464;-84
2023/11/08 00:53:41;;;;;;;1.90;1.50;;;7.70;99.90;;;;;;4811856;29;20649;-85
2023/11/08 00:56:08;;;;;;;2.63;1.27;;;7.80;99.90;;;;;;4828026;29;20204;-84
2023/11/08 00:58:34;;;;;;;3.50;1.40;;;7.80;99.90;;;;;;4811686;29;20202;-85
2023/11/08 01:00:59;;;;;;;4.43;1.63;;;7.80;99.90;;;;;;4811809;29;20242;-86
2023/11/08 01:03:25;;;;;;;4.73;1.20;;;7.80;99.90;;;;;;4827841;29;20226;-86
2023/11/08 01:05:53;;;;;;;2.40;1.30;;;7.80;99.90;;;;;;4828022;29;20190;-84
2023/11/08 01:08:18;;;;;;;4.03;1.27;;;7.80;99.90;;;;;;4827881;29;20204;-85
2023/11/08 01:10:46;;;;;;;2.07;1.27;;;7.80;99.90;;;;;;4827988;29;20190;-84
2023/11/08 01:13:13;;;;;;;3.77;1.27;;;7.90;99.90;;;;;;4811414;29;20611;-85
2023/11/08 01:15:40;;;;;;;2.13;1.17;;;7.90;99.90;;;;;;4811185;29;20226;-86
2023/11/08 01:18:05;;;;;;;1.23;1.10;;;7.90;99.90;;;;;;4811419;29;20201;-92
2023/11/08 01:20:31;;;;;;;1.63;1.00;;;7.90;99.90;;;;;;4811248;29;20202;-85
2023/11/08 01:22:58;;;;;;;2.97;1.27;;;7.90;99.90;;;;;;4827863;29;20521;-82
2023/11/08 01:25:25;;;;;;;1.77;1.00;;;7.90;99.90;;;;;;4811358;29;20205;-83
2023/11/08 01:27:51;;;;;;;2.53;1.17;;;7.90;99.90;;;;;;4827005;29;20234;-87
2023/11/08 01:30:17;;;;;;;4.30;1.10;;;7.90;99.90;;;;;;4827488;29;20201;-84
2023/11/08 01:32:43;;;;;;;3.23;1.00;;;8.00;99.90;;;;;;4811073;29;20190;-84
2023/11/08 01:35:09;;;;;;;1.60;1.00;;;8.00;99.90;;;;;;4827237;29;20189;-82
2023/11/08 01:37:45;;;;;;;2.07;0.90;;;8.00;99.90;;;;;;4827365;29;20261;-86
2023/11/08 01:40:11;;;;;;;2.00;1.10;;;8.00;99.90;;;;;;4827209;29;20194;-83
2023/11/08 01:42:37;;;;;;;2.17;1.00;;;8.00;99.90;;;;;;4826907;29;20182;-84
2023/11/08 01:45:04;;;;;;;1.30;0.80;;;8.10;99.90;;;;;;4811015;29;20637;-84
2023/11/08 01:47:35;;;;;;;1.90;0.93;;;8.10;99.90;;;;;;4811011;29;20254;-82
2023/11/08 01:50:03;;;;;;;3.80;1.10;;;8.10;99.90;;;;;;4811267;29;20228;-84
2023/11/08 01:52:30;;;;;;;2.47;1.20;;;8.10;99.90;;;;;;4811158;29;20194;-86
2023/11/08 01:54:56;;;;;;;2.33;0.93;;;8.10;99.90;;;;;;4819747;29;20190;-84
2023/11/08 01:57:29;;;;;;;1.30;0.90;;;8.10;99.90;;;;;;4809936;29;20829;-85
2023/11/08 01:59:59;;;;;;;2.90;1.30;;;8.10;99.90;;;;;;4810842;29;20198;-86
2023/11/08 02:02:24;;;;;;;2.30;0.80;;;8.10;99.90;;;;;;4826946;29;20610;-84
2023/11/08 02:04:53;;;;;;;3.53;1.30;;;8.10;99.90;;;;;;4810925;29;20241;-90
2023/11/08 02:07:20;;;;;;;1.85;1.20;;;8.20;99.90;;;;;;4810855;29;20186;-86
2023/11/08 02:09:46;;;;;;;3.80;0.90;;;8.20;99.90;;;;;;4810151;29;20288;-82
2023/11/08 02:12:12;;;;;;;2.90;1.00;;;8.30;99.90;;;;;;4810294;29;20228;-83
2023/11/08 02:15:00;;;;;;;6.80;1.10;;;8.20;99.90;;;;;;4826413;29;20202;-83
2023/11/08 02:17:33;;;;;;;2.70;0.80;;;8.20;99.90;;;;;;4826574;29;20263;-85
2023/11/08 02:20:03;;;;;;;5.03;1.20;;;8.20;99.90;;;;;;4826686;29;20186;-83
2023/11/08 02:22:30;;;;;;;2.37;0.80;;;8.20;99.90;;;;;;4826570;29;20682;-84
2023/11/08 02:24:56;;;;;;;2.55;0.90;;;8.30;99.90;;;;;;4810125;29;20198;-83
2023/11/08 02:27:21;;;;;;;2.57;0.90;;;8.20;99.90;;;;;;4806424;29;20238;-84
2023/11/08 02:32:23;;;;;;;2.87;1.60;;;8.20;99.90;;;;;;5066264;24;20244;-82
2023/11/08 02:34:49;;;;;;;1.37;0.67;;;8.20;99.90;;;;;;4808808;29;20193;-82
2023/11/08 02:37:15;;;;;;;2.73;0.87;;;8.20;99.90;;;;;;4825327;29;20272;-81
2023/11/08 02:39:42;;;;;;;1.90;0.70;;;8.30;99.90;;;;;;4824404;29;20659;-82
2023/11/08 02:42:08;;;;;;;4.20;1.07;;;8.30;99.90;;;;;;4824645;29;20201;-82
2023/11/08 02:44:34;;;;;;;2.57;1.17;;;8.30;99.90;;;;;;4808957;29;20224;-81
2023/11/08 02:46:59;;;;;;;2.93;1.00;;;8.30;99.90;;;;;;4825184;29;20190;-81
2023/11/08 02:49:30;;;;;;;7.35;1.00;;;8.30;99.90;;;;;;4825823;29;20220;-81
2023/11/08 02:51:56;;;;;;;3.72;1.25;;;8.40;99.90;;;;;;4825349;29;20209;-80
2023/11/08 02:54:22;;;;;;;2.33;1.20;;;8.40;99.90;;;;;;4825513;29;20602;-81
2023/11/08 02:56:48;;;;;;;1.48;0.95;;;8.30;99.90;;;;;;4825531;29;20523;-82
2023/11/08 02:59:14;;;;;;;1.57;0.83;;;8.30;99.90;;;;;;4825802;29;20182;-82
2023/11/08 03:01:39;;;;;;;1.73;1.00;;;8.20;99.90;;;;;;4824781;29;20190;-82
2023/11/08 03:04:05;;;;;;;2.43;0.90;;;8.20;99.90;;;;;;4824237;29;20229;-80
2023/11/08 03:06:32;;;;;;;4.37;1.13;;;8.20;99.90;;;;;;4824804;29;20213;-81
2023/11/08 03:08:57;;;;;;;5.27;1.30;;;8.20;99.90;;;;;;4824734;29;20724;-82
2023/11/08 03:11:23;;;;;;;4.03;1.13;;;8.20;99.90;;;;;;4824563;29;20186;-80
2023/11/08 03:13:49;;;;;;;5.07;1.10;;;8.20;99.90;;;;;;4825044;29;20185;-83
2023/11/08 03:16:16;;;;;;;5.47;1.17;;;8.20;99.90;;;;;;4824799;29;20217;-81
2023/11/08 03:18:42;;;;;;;3.50;1.10;;;8.20;99.90;;;;;;4825149;29;20186;-81
2023/11/08 03:21:08;;;;;;;4.50;1.03;;;8.20;99.90;;;;;;4825370;29;20190;-83
2023/11/08 03:23:34;;;;;;;3.60;0.90;;;8.20;99.90;;;;;;4825036;29;20668;-82
2023/11/08 03:26:00;;;;;;;2.00;0.90;;;8.20;99.90;;;;;;4823955;29;20949;-82
2023/11/08 03:28:25;;;;;;;4.22;1.00;;;8.30;99.90;;;;;;4825522;29;20223;-81
2023/11/08 03:30:51;;;;;;;2.63;1.10;;;8.30;99.90;;;;;;4823328;29;20292;-82
2023/11/08 03:33:18;;;;;;;4.17;1.10;;;8.30;99.90;;;;;;4825024;29;20201;-81
2023/11/08 03:35:43;;;;;;;4.03;0.90;;;8.30;99.90;;;;;;4824110;29;20194;-80
2023/11/08 03:38:09;;;;;;;2.10;0.70;;;8.30;99.90;;;;;;4823968;29;20206;-85
2023/11/08 03:40:35;;;;;;;2.50;0.90;;;8.30;99.90;;;;;;4825009;29;20198;-81
2023/11/08 03:43:02;;;;;;;2.97;1.10;;;8.30;99.90;;;;;;4825102;29;20217;-81
2023/11/08 03:45:27;;;;;;;1.87;0.80;;;8.30;99.90;;;;;;4825013;29;20293;-83
2023/11/08 03:47:53;;;;;;;1.98;0.80;;;8.30;99.90;;;;;;4808011;29;20284;-82
2023/11/08 03:50:19;;;;;;;2.23;0.87;;;8.30;99.90;;;;;;4824847;29;20186;-81
2023/11/08 03:52:46;;;;;;;1.73;1.10;;;8.30;99.90;;;;;;4824331;29;20198;-83
2023/11/08 03:55:12;;;;;;;1.90;1.20;;;8.30;99.90;;;;;;4824958;29;20186;-82
2023/11/08 03:57:38;;;;;;;3.60;1.20;;;8.30;99.90;;;;;;4824846;29;20196;-82
2023/11/08 04:00:05;;;;;;;1.03;0.77;;;8.40;99.90;;;;;;4823709;29;20242;-81
2023/11/08 04:02:30;;;;;;;3.20;1.00;;;8.30;99.90;;;;;;4823989;29;20186;-82
2023/11/08 04:04:57;;;;;;;3.50;1.20;;;8.30;99.90;;;;;;4824776;29;20194;-83
2023/11/08 04:07:23;;;;;;;2.37;1.00;;;8.40;99.90;;;;;;4824884;29;20182;-80
2023/11/08 04:09:49;;;;;;;2.87;1.07;;;8.40;99.90;;;;;;4824854;29;20581;-82
2023/11/08 04:12:15;;;;;;;5.60;1.07;;;8.40;99.90;;;;;;4823628;29;20190;-83
2023/11/08 04:14:41;;;;;;;12.85;1.25;;;8.40;99.90;;;;;;4824810;29;20193;-83
2023/11/08 04:17:10;;;;;;;5.23;1.20;;;8.40;99.90;;;;;;4824621;29;20564;-83
2023/11/08 04:19:37;;;;;;;3.50;1.20;;;8.40;99.90;;;;;;4824908;29;20246;-85
2023/11/08 04:22:06;;;;;;;3.53;1.00;;;8.40;99.90;;;;;;4828107;29;20186;-83
2023/11/08 04:24:33;;;;;;;1.65;1.10;;;8.40;99.90;;;;;;4811689;29;20609;-81
2023/11/08 04:26:59;;;;;;;5.00;1.40;;;8.40;99.90;;;;;;4826842;29;20246;-82
2023/11/08 04:29:25;;;;;;;4.10;1.88;;;8.40;99.90;;;;;;4826836;29;20193;-81
2023/11/08 04:31:51;;;;;;;2.75;1.35;;;8.40;99.90;;;;;;4827411;29;20333;-83
2023/11/08 04:34:17;;;;;;;3.28;1.30;;;8.40;99.90;;;;;;4811608;29;20190;-82
2023/11/08 04:36:43;;;;;;;4.13;1.60;;;8.50;99.90;;;;;;4827869;29;20621;-82
2023/11/08 04:39:10;;;;;;;3.25;1.60;;;8.50;99.90;;;;;;4826766;29;20194;-82
2023/11/08 04:41:38;;;;;;;2.53;1.30;;;8.50;99.90;;;;;;4827746;29;20289;-83
2023/11/08 04:44:05;;;;;;;3.05;1.27;;;8.50;99.90;;;;;;4827641;29;20653;-83
2023/11/08 04:46:31;;;;;;;3.57;1.60;;;8.50;99.90;;;;;;4827322;29;20190;-83
2023/11/08 04:48:56;;;;;;;4.80;1.48;;;8.50;99.90;;;;;;4826485;29;20205;-81
2023/11/08 04:51:22;;;;;;;4.93;1.53;;;8.50;99.90;;;;;;4811409;29;20224;-82
2023/11/08 04:53:48;;;;;;;3.53;1.67;;;8.50;99.90;;;;;;4827408;29;20200;-83
2023/11/08 04:56:13;;;;;;;3.00;1.80;;;8.50;99.90;;;;;;4827795;29;20193;-82
2023/11/08 04:58:39;;;;;;;5.75;1.83;;;8.50;99.90;;;;;;4827390;29;20194;-83
2023/11/08 05:01:05;;;;;;;3.03;1.83;;;8.40;99.90;;;;;;4827135;29;20194;-82
2023/11/08 05:03:30;;;;;;;2.40;1.70;;;8.50;99.90;;;;;;4813975;29;20221;-83
2023/11/08 05:05:56;;;;;;;2.83;1.88;;;8.50;99.90;;;;;;4811590;29;20683;-82
2023/11/08 05:08:23;;;;;;;6.60;2.20;;;8.50;99.90;;;;;;4827266;29;20614;-82
2023/11/08 05:10:49;;;;;;;3.20;1.65;;;8.50;99.90;;;;;;4810983;29;20200;-83
2023/11/08 05:13:15;;;;;;;4.18;1.90;;;8.50;99.90;;;;;;4827251;29;20189;-84
2023/11/08 05:15:41;;;;;;;4.40;2.00;;;8.50;99.90;;;;;;4810785;29;20189;-81
2023/11/08 05:18:07;;;;;;;5.73;2.17;;;8.50;99.90;;;;;;4826791;29;20234;-83
2023/11/08 05:20:35;;;;;;;2.50;1.90;;;8.50;99.90;;;;;;4827140;29;20178;-83
2023/11/08 05:23:01;;;;;;;4.70;2.10;;;8.50;99.90;;;;;;4810817;29;20340;-82
2023/11/08 05:25:27;;;;;;;6.63;1.92;;;8.50;99.90;;;;;;4827199;29;20189;-84
2023/11/08 05:27:53;;;;;;;5.72;2.20;;;8.50;99.90;;;;;;4825635;29;20287;-85
2023/11/08 05:30:19;;;;;;;5.17;2.60;;;8.50;99.90;;;;;;4810703;29;20221;-81
2023/11/08 05:32:45;;;;;;;3.57;2.60;;;8.50;99.90;;;;;;4825611;29;20237;-82
2023/11/08 05:35:14;;;;;;;4.45;2.53;;;8.50;99.90;;;;;;4826842;29;20196;-82
2023/11/08 05:37:43;;;;;;;4.38;2.38;;;8.50;99.90;;;;;;4826776;29;20190;-83
2023/11/08 05:40:12;;;;;;;4.30;2.50;;;8.50;99.90;;;;;;4810412;29;20190;-84
2023/11/08 05:42:39;;;;;;;3.90;2.00;;;8.50;99.90;;;;;;4810356;29;20281;-83
2023/11/08 05:45:06;;;;;;;4.85;2.30;;;8.50;99.90;;;;;;4826464;29;20201;-83
2023/11/08 05:47:31;;;;;;;4.53;2.23;;;8.50;99.90;;;;;;4809712;29;20701;-82
2023/11/08 05:49:57;;;;;;;5.55;2.58;;;8.50;99.90;;;;;;4825293;29;20611;-82
2023/11/08 05:52:24;;;;;;;6.03;2.50;;;8.50;99.90;;;;;;4826502;29;20193;-83
2023/11/08 05:54:51;;;;;;;3.07;2.57;;;8.60;99.90;;;;;;4826179;29;20178;-82
2023/11/08 05:57:18;;;;;;;6.53;3.13;;;8.60;99.90;;;;;;4826225;29;20178;-81
2023/11/08 05:59:44;;;;;;;5.53;2.80;;;8.60;99.90;;;;;;4809517;29;20186;-81
2023/11/08 06:02:09;;;;;;;13.97;3.27;;;8.50;99.90;;;;;;4826108;29;20192;-84
2023/11/08 06:04:36;;;;;;;7.60;3.53;;;8.50;99.90;;;;;;4809644;29;20233;-82
2023/11/08 06:07:02;;;;;;;6.32;3.05;;;8.50;99.90;;;;;;4809582;29;20201;-83
2023/11/08 06:09:27;;;;;;;5.47;3.20;;;8.50;99.90;;;;;;4825099;29;20193;-84
2023/11/08 06:11:53;;;;;;;7.50;3.17;;;8.50;99.90;;;;;;4824861;29;20194;-82
2023/11/08 06:14:19;;;;;;;6.07;3.33;;;8.50;99.90;;;;;;4809639;29;20193;-83
2023/11/08 06:16:45;;;;;;;3.75;2.90;;;8.60;99.90;;;;;;4825752;29;20200;-83
2023/11/08 06:19:11;;;;;;;3.95;2.92;;;8.60;99.90;;;;;;4825499;29;20205;-81
2023/11/08 06:21:37;;;;;;;4.65;3.50;;;8.50;99.90;;;;;;4809128;29;20190;-81
2023/11/08 06:24:04;;;;;;;6.18;3.35;;;8.60;99.90;;;;;;4809269;29;20278;-81
2023/11/08 06:26:30;;;;;;;6.25;3.60;;;8.60;99.90;;;;;;4809691;29;20392;-82
2023/11/08 06:28:55;;;;;;;5.60;3.60;;;8.60;99.90;;;;;;4824401;29;20288;-82
2023/11/08 06:31:21;;;;;;;5.22;3.28;;;8.60;99.90;;;;;;4806250;29;20237;-88
2023/11/08 06:33:48;;;;;;;6.75;4.00;;;8.50;99.90;;;;;;4807913;29;20195;-83
2023/11/08 06:36:15;;;;;;;8.27;3.88;;;8.50;99.90;;;;;;4821472;29;20210;-83
2023/11/08 06:38:40;;;;;;;7.03;3.55;;;8.50;99.90;;;;;;4807433;29;20195;-82
2023/11/08 06:41:06;;;;;;;6.03;4.07;;;8.50;99.90;;;;;;4807548;29;20243;-84
2023/11/08 06:43:32;;;;;;;8.00;4.30;;;8.50;99.90;;;;;;4807020;29;21003;-81
2023/11/08 06:45:58;;;;;;;9.05;4.47;;;8.50;99.90;;;;;;4821192;29;20191;-83
2023/11/08 06:48:25;;;;;;;5.53;4.05;;;8.50;99.90;;;;;;4821026;29;20586;-82
2023/11/08 06:50:51;;;;;;;6.10;3.97;;;8.60;99.90;;;;;;4821543;29;20586;-83
2023/11/08 06:53:17;;;;;;;7.43;4.20;;;8.60;99.90;;;;;;4821024;29;20282;-82
2023/11/08 06:55:46;;;;;;;6.40;4.03;;;8.60;99.90;;;;;;4805877;29;20195;-82
2023/11/08 06:58:12;;;;;;;8.73;4.50;;;8.60;99.90;;;;;;4806924;29;20186;-82
2023/11/08 07:00:38;;;;;;;8.82;4.55;;;8.60;99.90;;;;;;4807107;29;20639;-83
2023/11/08 07:03:05;;;;;;;7.55;4.45;;;8.60;99.90;;;;;;4820947;29;20217;-84
2023/11/08 07:05:31;;;;;;;9.00;4.20;;;8.60;99.90;;;;;;4807193;29;20205;-85
2023/11/08 07:08:01;;;;;;;7.57;3.83;;;8.60;99.90;;;;;;4820679;29;20241;-83
2023/11/08 07:10:27;;;;;;;7.03;4.23;;;8.60;99.90;;;;;;4821015;29;20206;-83
2023/11/08 07:12:53;;;;;;;9.17;4.27;;;8.60;99.90;;;;;;4807044;29;20190;-85
2023/11/08 07:15:19;;;;;;;8.02;4.38;;;8.60;99.90;;;;;;4805725;29;20213;-84
2023/11/08 07:17:45;;;;;;;6.32;3.97;;;8.60;99.90;;;;;;4806532;29;20665;-82
2023/11/08 07:20:11;;;;;;;8.48;4.80;;;8.70;99.90;;;;;;4821023;29;20198;-83
2023/11/08 07:22:37;;;;;;;6.45;4.30;;;8.70;99.90;;;;;;4820719;29;20194;-83
2023/11/08 07:25:03;;;;;;;7.05;4.28;;;8.70;99.90;;;;;;4806837;29;20532;-83
2023/11/08 07:27:30;;;;;;;9.10;4.53;;;8.70;99.90;;;;;;4820803;29;20195;-84
2023/11/08 07:29:56;;;;;;;9.73;4.80;;;8.70;99.90;;;;;;4806946;29;20639;-86
2023/11/08 07:32:22;;;;;;;8.85;4.30;;;8.70;99.90;;;;;;4820036;29;20321;-83
2023/11/08 07:34:48;;;;;;;7.72;4.28;;;8.80;99.90;;;;;;4808142;29;20217;-82
2023/11/08 07:37:14;;;;;;;5.75;3.97;;;8.80;99.90;;;;;;4825120;29;20194;-83
2023/11/08 07:39:42;;;;;;;8.30;4.40;;;8.80;99.90;;;;;;4825103;29;20194;-83
2023/11/08 07:42:08;;;;;;;10.38;4.45;;;8.80;99.90;;;;;;4825415;29;20190;-82
2023/11/08 07:44:34;;;;;;;8.35;4.53;;;8.90;99.90;;;;;;4824936;29;20287;-83
2023/11/08 07:47:00;;;;;;;7.30;4.28;;;8.90;99.90;;;;;;4823558;29;20269;-84
2023/11/08 07:49:27;;;;;;;7.95;4.72;;;8.90;99.90;;;;;;4825075;29;20269;-85
2023/11/08 07:51:53;;;;;;;8.50;4.65;;;8.90;99.90;;;;;;4824880;29;20180;-87
2023/11/08 07:54:19;;;;;;;8.80;4.82;;;9.00;99.90;;;;;;4824738;29;20194;-82
2023/11/08 07:56:49;;;;;;;10.02;5.03;;;9.00;99.90;;;;;;4807998;29;20518;-88
2023/11/08 07:59:15;;;;;;;7.63;4.60;;;9.00;99.90;;;;;;4823688;29;20193;-85
2023/11/08 08:01:40;;;;;;;4.90;4.40;;;9.10;99.90;;;;;;4807917;29;20194;-84
2023/11/08 08:04:06;;;;;;;9.30;4.75;;;9.10;99.90;;;;;;4824593;29;20221;-85
2023/11/08 08:06:32;;;;;;;8.15;4.80;;;9.10;99.90;;;;;;4823158;29;20186;-81
2023/11/08 08:08:59;;;;;;;8.10;4.50;;;9.10;99.90;;;;;;4808076;29;20262;-83
2023/11/08 08:11:25;;;;;;;8.87;5.40;;;9.10;99.90;;;;;;4824748;29;20182;-83
2023/11/08 08:13:52;;;;;;;8.48;4.65;;;9.10;99.90;;;;;;4824739;29;20186;-85
2023/11/08 08:16:19;;;;;;;5.72;4.40;;;9.10;99.90;;;;;;4824502;29;20174;-86
2023/11/08 08:18:46;;;;;;;6.32;4.18;;;9.20;99.90;;;;;;4808032;29;20641;-84
2023/11/08 08:21:13;;;;;;;6.22;4.68;;;9.20;99.90;;;;;;4822565;29;20190;-82
2023/11/08 08:23:39;;;;;;;6.85;4.18;;;9.20;99.90;;;;;;4823082;29;20581;-84
2023/11/08 08:26:05;;;;;;;7.22;4.95;;;9.30;99.90;;;;;;4823584;29;20224;-82
2023/11/08 08:28:35;;;;;;;8.75;4.60;;;9.30;99.90;;;;;;4822905;29;20189;-86
2023/11/08 08:31:05;;;;;;;8.82;4.75;;;9.30;99.90;;;;;;4823170;29;20688;-85
2023/11/08 08:33:31;;;;;;;6.88;3.80;;;9.30;99.90;;;;;;4808437;29;20193;-86
2023/11/08 08:35:58;;;;;;;4.25;3.55;;;9.30;99.90;;;;;;4824931;29;20181;-85
2023/11/08 08:38:24;;;;;;;7.53;3.53;;;9.40;99.90;;;;;;4823560;29;20536;-88
2023/11/08 08:40:49;;;;;;;4.63;3.60;;;9.40;99.90;;;;;;4824391;29;20618;-82
2023/11/08 08:43:22;;;;;;;5.70;3.65;;;9.50;99.90;;;;;;4823093;29;20218;-83
2023/11/08 08:45:48;;;;;;;7.55;3.78;;;9.60;99.90;;;;;;4807551;29;20190;-83
2023/11/08 08:48:14;;;;;;;4.53;3.53;;;9.60;99.90;;;;;;4822572;29;20198;-82
2023/11/08 08:50:40;;;;;;;5.63;3.58;;;9.60;99.90;;;;;;4824042;29;20232;-81
2023/11/08 08:53:06;;;;;;;7.93;3.60;;;9.60;99.90;;;;;;4822913;29;20229;-82
2023/11/08 08:55:35;;;;;;;5.93;3.25;;;9.60;99.90;;;;;;4824062;29;20221;-82
2023/11/08 08:58:01;;;;;;;4.63;3.47;;;9.60;99.90;;;;;;4822494;29;20217;-83
2023/11/08 09:00:27;;;;;;;6.38;3.20;;;9.60;99.90;;;;;;4823848;29;20274;-83
2023/11/08 09:02:53;;;;;;;7.15;3.13;;;9.60;99.90;;;;;;4823585;29;20709;-82
2023/11/08 09:05:20;;;;;;;5.88;2.88;;;9.70;99.90;;;;;;4823878;29;20272;-83
2023/11/08 09:07:47;;;;;;;4.45;3.17;;;9.70;99.90;;;;;;4823678;29;20522;-84
2023/11/08 09:10:12;;;;;;;6.65;3.05;;;9.70;99.90;;;;;;4827337;29;20189;-84
2023/11/08 09:12:38;;;;;;;4.78;3.03;;;9.80;99.90;;;;;;4810816;29;20258;-85
2023/11/08 09:15:05;;;;;;;5.15;2.95;;;9.80;99.90;;;;;;4826934;29;20706;-84
2023/11/08 09:17:32;;;;;;;3.72;2.70;;;9.90;99.90;;;;;;4826558;29;20248;-82
2023/11/08 09:19:57;;;;;;;7.20;3.30;;;9.80;99.90;;;;;;4810286;29;20579;-81
2023/11/08 09:22:23;;;;;;;3.80;3.10;;;9.80;99.90;;;;;;4810606;29;20186;-82
2023/11/08 09:24:49;;;;;;;6.80;3.10;;;9.90;99.90;;;;;;4826599;29;20214;-82
2023/11/08 09:27:15;;;;;;;5.32;2.80;;;9.90;99.90;;;;;;4826616;29;20182;-81
2023/11/08 09:29:41;;;;;;;7.00;2.92;;;10.00;99.90;;;;;;4826679;29;20190;-84
2023/11/08 09:32:07;;;;;;;4.00;2.90;;;10.00;99.90;;;;;;4809920;29;20245;-82
2023/11/08 09:34:34;;;;;;;4.13;2.70;;;10.00;99.90;;;;;;4810097;29;20198;-80
2023/11/08 09:37:00;;;;;;;5.32;2.75;;;10.00;99.90;;;;;;4826559;29;20571;-83
2023/11/08 09:39:31;;;;;;;5.85;2.63;;;10.00;99.90;;;;;;4810418;29;20243;-82
2023/11/08 09:41:57;;;;;;;3.67;2.45;;;10.10;99.90;;;;;;4810204;29;20185;-82
2023/11/08 09:44:27;;;;;;;2.33;2.13;;;10.10;99.90;;;;;;4826493;29;20214;-83
2023/11/08 09:46:54;;;;;;;7.85;3.15;;;10.10;99.90;;;;;;4826159;29;20201;-83
2023/11/08 09:49:24;;;;;;;8.23;3.00;;;10.10;99.90;;;;;;4826665;29;20190;-82
2023/11/08 09:51:52;;;;;;;4.03;2.30;;;10.10;99.90;;;;;;4826445;29;20217;-83
2023/11/08 09:54:18;;;;;;;3.72;2.40;;;10.10;99.90;;;;;;4826630;29;20658;-87
2023/11/08 09:56:44;;;;;;;3.35;2.10;;;10.20;99.90;;;;;;4810182;29;20202;-86
2023/11/08 09:59:16;;;;;;;3.60;2.08;;;10.10;99.90;;;;;;4826531;29;20209;-85
2023/11/08 10:01:46;;;;;;;4.93;2.25;;;10.10;99.90;;;;;;4826408;29;20220;-85
2023/11/08 10:04:16;;;;;;;5.70;2.35;;;10.10;99.90;;;;;;4825495;29;20221;-86
2023/11/08 10:06:44;;;;;;;5.78;2.20;;;10.20;99.90;;;;;;4826265;29;20182;-86
2023/11/08 10:09:11;;;;;;;3.95;2.05;;;10.20;99.90;;;;;;4825281;29;20200;-85
2023/11/08 10:11:42;;;;;;;4.55;2.30;;;10.20;99.90;;;;;;4809723;29;20579;-85
2023/11/08 10:14:08;;;;;;;3.22;1.98;;;10.20;99.90;;;;;;4826288;29;20604;-87
2023/11/08 10:16:48;;;;;;;3.05;1.95;;;10.20;99.90;;;;;;4826028;29;20185;-86
2023/11/08 10:19:14;;;;;;;5.97;2.28;;;10.30;99.90;;;;;;4825692;29;20693;-85
2023/11/08 10:21:50;;;;;;;3.38;1.90;;;10.30;99.90;;;;;;4825991;29;20212;-84
2023/11/08 10:24:17;;;;;;;7.47;1.92;;;10.30;99.90;;;;;;4825901;29;20296;-86
2023/11/08 10:26:44;;;;;;;3.83;1.85;;;10.20;99.90;;;;;;4809250;29;20243;-85
2023/11/08 10:29:13;;;;;;;4.00;1.73;;;10.30;99.90;;;;;;4809502;29;20633;-86
2023/11/08 10:31:43;;;;;;;5.68;1.90;;;10.30;99.90;;;;;;4809288;29;20297;-84
2023/11/08 10:34:14;;;;;;;5.40;2.00;;;10.30;99.90;;;;;;4809162;29;20222;-84
2023/11/08 10:36:40;;;;;;;6.85;2.40;;;10.30;99.90;;;;;;4809164;29;20193;-85
2023/11/08 10:39:13;;;;;;;2.97;2.00;;;10.30;99.90;;;;;;4825602;29;20645;-83
2023/11/08 10:41:49;;;;;;;4.90;2.00;;;10.30;99.90;;;;;;4809472;29;20242;-83
2023/11/08 10:44:22;;;;;;;6.72;2.40;;;10.40;99.90;;;;;;4809301;29;20602;-84
2023/11/08 10:46:58;;;;;;;4.95;2.10;;;10.40;99.90;;;;;;4824099;29;20254;-83
2023/11/08 10:49:24;;;;;;;4.57;2.10;;;10.40;99.90;;;;;;4809100;29;20242;-84
2023/11/08 10:51:50;;;;;;;4.93;1.90;;;10.30;99.90;;;;;;4824140;29;20186;-83
2023/11/08 10:54:16;;;;;;;8.68;2.20;;;10.30;99.90;;;;;;4825484;29;20204;-83
2023/11/08 10:56:45;;;;;;;5.55;1.73;;;10.30;99.90;;;;;;4825271;29;20190;-84
2023/11/08 10:59:12;;;;;;;5.90;1.60;;;10.30;99.90;;;;;;4809193;29;20201;-83
2023/11/08 11:01:41;;;;;;;5.05;1.85;;;10.30;99.90;;;;;;4825302;29;20210;-85
2023/11/08 11:04:10;;;;;;;2.92;1.35;;;10.30;99.90;;;;;;4823364;29;20305;-84
2023/11/08 11:06:38;;;;;;;4.50;1.58;;;10.50;99.90;;;;;;4821653;29;20182;-85
2023/11/08 11:09:12;;;;;;;6.05;1.65;;;10.60;99.90;;;;;;4825465;29;20182;-85
2023/11/08 11:11:42;;;;;;;6.63;1.50;;;10.70;99.90;;;;;;4824051;29;20193;-85
2023/11/08 11:14:36;;;;;;;5.45;1.40;;;10.80;99.90;;;;;;4824302;29;20281;-85
2023/11/08 11:17:24;;;;;;;6.57;1.45;;;10.80;99.90;;;;;;4825173;29;20186;-83
2023/11/08 11:19:53;;;;;;;6.60;1.40;;;10.80;99.90;;;;;;4825077;29;20223;-83
2023/11/08 11:22:20;;;;;;;6.50;1.30;;;10.90;99.90;;;;;;4809034;29;20285;-85
2023/11/08 11:24:46;;;;;;;3.50;1.10;;;10.80;99.90;;;;;;4808548;29;20222;-86
2023/11/08 11:27:35;;;;;;;4.65;1.27;;;10.80;99.90;;;;;;4824977;29;20186;-87
2023/11/08 11:30:13;;;;;;;3.67;1.33;;;10.80;99.90;;;;;;4815109;29;20288;-87
2023/11/08 11:32:46;;;;;;;3.92;1.02;;;10.70;99.90;;;;;;4824307;29;20262;-82
2023/11/08 11:35:32;;;;;;;3.20;0.98;;;10.70;99.90;;;;;;4824986;29;20193;-84
2023/11/08 11:38:07;;;;;;;2.58;0.90;;;10.70;99.90;;;;;;4807320;29;20339;-83
2023/11/08 11:40:52;;;;;;;6.68;0.93;;;10.70;99.90;;;;;;4823658;29;20232;-86
2023/11/08 11:43:33;;;;;;;5.57;1.25;;;10.80;99.90;;;;;;4824095;29;20217;-81
2023/11/08 11:46:01;;;;;;;7.03;1.20;;;10.80;99.90;;;;;;4824719;29;20177;-82
2023/11/08 11:48:28;;;;;;;3.10;1.00;;;10.80;99.90;;;;;;4823793;29;20221;-83
2023/11/08 11:50:54;;;;;;;5.20;1.10;;;10.80;99.90;;;;;;4823389;29;20193;-83
2023/11/08 11:53:20;;;;;;;5.28;1.52;;;10.80;99.90;;;;;;4807888;29;20656;-82
2023/11/08 11:55:45;;;;;;;3.70;1.23;;;10.90;99.90;;;;;;4808129;29;20236;-81
2023/11/08 11:58:12;;;;;;;5.00;1.17;;;11.10;99.90;;;;;;4807855;29;20246;-84
2023/11/08 12:00:38;;;;;;;7.95;1.40;;;11.20;99.90;;;;;;4824409;29;20193;-83
2023/11/08 12:03:04;;;;;;;4.20;1.25;;;11.20;99.90;;;;;;4824294;29;20239;-84
2023/11/08 12:05:30;;;;;;;7.25;1.20;;;11.20;99.90;;;;;;4824476;29;20194;-82
2023/11/08 12:07:56;;;;;;;3.97;1.10;;;11.20;99.90;;;;;;4823967;29;20197;-82
2023/11/08 12:10:26;;;;;;;7.70;1.40;;;11.10;99.90;;;;;;4824575;29;20189;-83
2023/11/08 12:12:53;;;;;;;3.30;1.10;;;11.00;99.90;;;;;;4823370;29;20198;-84
2023/11/08 12:15:22;;;;;;;4.30;1.40;;;11.00;99.90;;;;;;4823567;29;20190;-84
2023/11/08 12:17:57;;;;;;;5.05;1.27;;;11.00;99.90;;;;;;4808120;29;20217;-85
2023/11/08 12:20:26;;;;;;;4.93;1.27;;;11.00;99.90;;;;;;4808059;29;20663;-85
2023/11/08 12:22:53;;;;;;;7.43;1.63;;;11.10;99.90;;;;;;4807794;29;20630;-84
2023/11/08 12:25:21;;;;;;;7.00;1.50;;;11.20;99.90;;;;;;4824540;29;20273;-85
2023/11/08 12:27:51;;;;;;;4.82;1.60;;;11.30;99.90;;;;;;4808119;29;20182;-84
2023/11/08 12:30:17;;;;;;;3.25;0.95;;;11.30;99.90;;;;;;4824659;29;20212;-84
2023/11/08 12:32:44;;;;;;;5.57;0.88;;;11.20;99.90;;;;;;4822502;29;20241;-83
2023/11/08 12:35:10;;;;;;;3.13;0.90;;;11.20;99.90;;;;;;4823121;29;20280;-84
2023/11/08 12:37:37;;;;;;;4.10;1.20;;;11.40;99.90;;;;;;4823502;29;20189;-85
2023/11/08 12:40:17;;;;;;;6.47;1.58;;;11.60;99.90;;;;;;4824442;29;20183;-85
2023/11/08 12:42:43;;;;;;;8.43;1.58;;;11.70;99.90;;;;;;4826200;29;20189;-84
2023/11/08 12:45:09;;;;;;;4.78;1.17;;;11.60;99.90;;;;;;4810430;29;20221;-84
2023/11/08 12:47:35;;;;;;;4.68;1.00;;;11.60;99.90;;;;;;4825581;29;20669;-85
2023/11/08 12:50:13;;;;;;;2.67;1.08;;;11.60;99.90;;;;;;4827654;29;20197;-86
2023/11/08 12:52:39;;;;;;;9.68;1.35;;;11.50;99.90;;;;;;4811377;29;20526;-84
2023/11/08 12:55:05;;;;;;;6.72;1.30;;;11.40;99.90;;;;;;4826429;29;20181;-85
2023/11/08 12:57:31;;;;;;;3.75;0.98;;;11.40;99.90;;;;;;4825996;29;20626;-85
2023/11/08 12:59:58;;;;;;;4.47;1.08;;;11.40;99.90;;;;;;4827307;29;20250;-85